Terminal Aerodrome Forecast
Issued by NWS Boston, MA

Home | Current Version | Previous Version | Text Only | Print | Product List | Glossary On
Versions: 1 2 3 4 5 6 7 8 9 10 11 12 13 14 15 16 17 18
000
FTUS41 KBOX 222026 AAA
TAFORH
TAF AMD
KORH 222026Z 2220/2318 03012G21KT P6SM BKN025
     FM231400 01009G19KT P6SM BKN020
     FM231600 02009G17KT P6SM SCT025=

USA.gov is the U.S. government's official web portal to all federal, state and local government web resources and services.